Time;durP1;ratioP1;P1;durP2;ratioP2;P2;SDS_P1;SDS_P2;PMS_P1;PMS_P2;Temp;Humidity;BMP_temperature;BMP_pressure;BME280_temperature;BME280_humidity;BME280_pressure;Samples;Min_cycle;Max_cycle;Signal;HPM_P1;HPM_P2
2022/12/08 00:00:01;;;;;;;5.90;2.63;;;;;;;;;;1269660;23;20484;-78
2022/12/08 00:00:32;;;;;;;3.67;2.40;;;;;;;;;;1270152;23;20036;-78
2022/12/08 00:01:06;;;;;;;6.53;3.20;;;;;;;;;;1270151;23;20016;-78
2022/12/08 00:01:37;;;;;;;2.92;2.42;;;;;;;;;;1270260;23;20057;-79
2022/12/08 00:02:08;;;;;;;2.97;2.42;;;;;;;;;;1270031;23;20009;-79
2022/12/08 00:02:41;;;;;;;4.47;2.20;;;;;;;;;;1270376;23;20008;-79
2022/12/08 00:03:12;;;;;;;5.93;2.60;;;;;;;;;;1270216;23;20016;-77
2022/12/08 00:03:43;;;;;;;3.53;2.17;;;;;;;;;;1270446;23;20017;-78
2022/12/08 00:04:14;;;;;;;3.00;1.90;;;;;;;;;;1269825;23;20124;-79
2022/12/08 00:09:44;;;;;;;3.15;2.70;;;;;;;;;;1277117;23;20592;-78
2022/12/08 00:10:15;;;;;;;4.30;2.47;;;;;;;;;;1276492;23;20429;-78
2022/12/08 00:10:46;;;;;;;3.28;2.53;;;;;;;;;;1276968;23;20011;-77
2022/12/08 00:11:17;;;;;;;2.60;1.92;;;;;;;;;;1276599;23;20443;-79
2022/12/08 00:11:56;;;;;;;6.07;3.00;;;;;;;;;;1270236;23;20009;-78
2022/12/08 00:12:27;;;;;;;;;;;;;;;;;;1264175;23;20414;-77
2022/12/08 00:12:58;;;;;;;4.40;2.70;;;;;;;;;;1264380;23;20352;-78
2022/12/08 00:13:29;;;;;;;3.42;2.33;;;;;;;;;;1265564;23;20230;-79
2022/12/08 00:14:00;;;;;;;6.38;2.78;;;;;;;;;;1270194;23;20017;-79
2022/12/08 00:14:32;;;;;;;3.00;2.38;;;;;;;;;;1270084;23;20009;-78
2022/12/08 00:15:03;;;;;;;3.65;2.75;;;;;;;;;;1265024;23;20422;-78
2022/12/08 00:15:34;;;;;;;4.97;2.97;;;;;;;;;;1270034;23;19998;-78
2022/12/08 00:16:05;;;;;;;3.08;2.42;;;;;;;;;;1270296;23;20373;-78
2022/12/08 00:16:36;;;;;;;2.58;2.22;;;;;;;;;;1270142;23;20009;-78
2022/12/08 00:17:08;;;;;;;5.47;2.65;;;;;;;;;;1270031;23;20001;-77
2022/12/08 00:17:39;;;;;;;4.10;2.45;;;;;;;;;;1269676;23;20814;-78
2022/12/08 00:18:11;;;;;;;4.68;2.85;;;;;;;;;;1265035;23;20628;-78
2022/12/08 00:18:42;;;;;;;5.30;2.60;;;;;;;;;;1270076;23;19997;-78
2022/12/08 00:19:13;;;;;;;4.97;2.58;;;;;;;;;;1270595;23;20005;-78
2022/12/08 00:19:44;;;;;;;3.15;2.38;;;;;;;;;;1276476;23;20476;-78
2022/12/08 00:20:15;;;;;;;3.80;2.63;;;;;;;;;;1276812;23;20001;-78
2022/12/08 00:20:53;;;;;;;4.97;2.28;;;;;;;;;;1276414;23;20532;-78
2022/12/08 00:21:24;;;;;;;3.05;2.53;;;;;;;;;;1277055;23;20629;-78
2022/12/08 00:21:55;;;;;;;3.90;2.25;;;;;;;;;;1269783;23;20410;-79
2022/12/08 00:22:28;;;;;;;2.88;2.20;;;;;;;;;;1270358;23;20038;-78
2022/12/08 00:22:58;;;;;;;4.78;2.33;;;;;;;;;;1263614;23;20058;-77
2022/12/08 00:23:29;;;;;;;4.55;2.58;;;;;;;;;;1264874;23;20077;-78
2022/12/08 00:24:00;;;;;;;5.93;2.33;;;;;;;;;;1263954;23;20576;-78
2022/12/08 00:24:33;;;;;;;4.25;2.10;;;;;;;;;;1258304;23;20085;-79
2022/12/08 00:25:05;;;;;;;4.80;2.20;;;;;;;;;;1263984;23;20505;-78
2022/12/08 00:25:36;;;;;;;5.80;2.75;;;;;;;;;;1265261;23;20387;-78
2022/12/08 00:26:07;;;;;;;3.33;2.20;;;;;;;;;;1270588;23;20056;-78
2022/12/08 00:26:38;;;;;;;2.45;1.88;;;;;;;;;;1270587;23;20001;-77
2022/12/08 00:27:09;;;;;;;3.28;2.13;;;;;;;;;;1263475;23;20029;-78
2022/12/08 00:27:40;;;;;;;4.72;2.63;;;;;;;;;;1264035;23;20468;-77
2022/12/08 00:28:11;;;;;;;5.50;2.22;;;;;;;;;;1264226;23;20311;-78
2022/12/08 00:28:42;;;;;;;2.95;2.55;;;;;;;;;;1264176;23;20129;-78
2022/12/08 00:29:13;;;;;;;4.13;2.20;;;;;;;;;;1264167;23;20768;-78
2022/12/08 00:29:44;;;;;;;3.67;2.40;;;;;;;;;;1270244;23;20628;-77
2022/12/08 00:30:15;;;;;;;4.75;2.30;;;;;;;;;;1269864;23;20012;-78
2022/12/08 00:30:46;;;;;;;3.05;1.90;;;;;;;;;;1270377;23;20116;-78
2022/12/08 00:31:17;;;;;;;2.55;1.92;;;;;;;;;;1263792;23;20212;-77
2022/12/08 00:31:48;;;;;;;3.35;2.00;;;;;;;;;;1264709;23;20716;-78
2022/12/08 00:32:19;;;;;;;4.97;2.58;;;;;;;;;;1269985;23;20085;-78
2022/12/08 00:32:50;;;;;;;4.00;2.10;;;;;;;;;;1270175;23;19998;-77
2022/12/08 00:33:21;;;;;;;5.75;2.38;;;;;;;;;;1270056;23;20005;-77
2022/12/08 00:33:52;;;;;;;4.15;2.42;;;;;;;;;;1264483;23;20033;-78
2022/12/08 00:34:23;;;;;;;2.83;1.80;;;;;;;;;;1269996;23;19993;-77
2022/12/08 00:34:54;;;;;;;3.00;1.98;;;;;;;;;;1270140;23;20333;-78
2022/12/08 00:35:25;;;;;;;2.53;1.55;;;;;;;;;;1269865;23;20763;-78
2022/12/08 00:35:56;;;;;;;3.47;2.20;;;;;;;;;;1270356;23;20088;-77
2022/12/08 00:36:27;;;;;;;2.50;1.80;;;;;;;;;;1269166;23;20081;-79
2022/12/08 00:36:58;;;;;;;4.35;2.05;;;;;;;;;;1270038;23;20009;-78
2022/12/08 00:37:29;;;;;;;3.30;1.70;;;;;;;;;;1270116;23;20068;-79
2022/12/08 00:38:00;;;;;;;4.25;2.20;;;;;;;;;;1270280;23;20002;-77
2022/12/08 00:38:31;;;;;;;2.92;1.90;;;;;;;;;;1270052;23;20454;-78
2022/12/08 00:39:02;;;;;;;3.85;2.17;;;;;;;;;;1270068;23;20092;-78
2022/12/08 00:39:33;;;;;;;3.90;1.80;;;;;;;;;;1269688;23;20002;-78
2022/12/08 00:40:05;;;;;;;2.70;1.63;;;;;;;;;;1269927;23;20077;-78
2022/12/08 00:40:36;;;;;;;3.88;2.05;;;;;;;;;;1264106;23;19998;-78
2022/12/08 00:41:11;;;;;;;2.97;1.98;;;;;;;;;;1269689;23;20001;-78
2022/12/08 00:42:32;;;;;;;3.10;1.70;;;;;;;;;;1269900;23;20013;-78
2022/12/08 00:43:03;;;;;;;6.00;2.10;;;;;;;;;;1274989;23;20005;-78
2022/12/08 00:43:33;;;;;;;2.60;1.70;;;;;;;;;;1270010;23;19997;-78
2022/12/08 00:44:05;;;;;;;4.25;1.90;;;;;;;;;;1269461;23;20085;-78
2022/12/08 00:44:36;;;;;;;4.50;2.00;;;;;;;;;;1264094;23;20320;-78
2022/12/08 00:45:07;;;;;;;3.20;1.98;;;;;;;;;;1264000;23;20569;-78
2022/12/08 00:45:38;;;;;;;4.35;2.67;;;;;;;;;;1270186;23;20001;-77
2022/12/08 00:46:10;;;;;;;2.78;2.05;;;;;;;;;;1263447;23;20002;-78
2022/12/08 00:46:41;;;;;;;4.03;1.80;;;;;;;;;;1264457;23;19998;-79
2022/12/08 00:47:13;;;;;;;2.83;2.00;;;;;;;;;;1269485;23;20039;-78
2022/12/08 00:47:44;;;;;;;4.00;2.30;;;;;;;;;;1270152;23;20008;-77
2022/12/08 00:48:15;;;;;;;4.25;2.28;;;;;;;;;;1269641;23;20039;-78
2022/12/08 00:48:46;;;;;;;3.83;2.15;;;;;;;;;;1269412;23;20085;-77
2022/12/08 00:49:17;;;;;;;2.97;1.98;;;;;;;;;;1264220;23;20020;-78
2022/12/08 00:49:48;;;;;;;3.17;1.90;;;;;;;;;;1269850;23;20437;-79
2022/12/08 00:50:19;;;;;;;3.28;1.90;;;;;;;;;;1269787;23;20002;-78
2022/12/08 00:50:50;;;;;;;2.30;1.33;;;;;;;;;;1269834;23;20001;-78
2022/12/08 00:51:21;;;;;;;3.00;1.95;;;;;;;;;;1269440;23;20041;-77
2022/12/08 00:51:52;;;;;;;5.13;2.20;;;;;;;;;;1264441;23;20004;-78
2022/12/08 00:52:22;;;;;;;2.25;1.88;;;;;;;;;;1269318;23;19998;-78
2022/12/08 00:52:53;;;;;;;2.28;1.45;;;;;;;;;;1270125;23;19998;-78
2022/12/08 00:53:24;;;;;;;4.07;1.70;;;;;;;;;;1269656;23;20005;-78
2022/12/08 00:53:55;;;;;;;2.13;1.92;;;;;;;;;;1269799;23;20652;-80
2022/12/08 00:54:26;;;;;;;2.53;1.60;;;;;;;;;;1269983;23;20009;-80
2022/12/08 00:54:57;;;;;;;4.47;2.08;;;;;;;;;;1270279;23;20001;-78
2022/12/08 00:55:28;;;;;;;2.60;1.67;;;;;;;;;;1269844;23;20340;-78
2022/12/08 00:55:59;;;;;;;2.75;1.80;;;;;;;;;;1270513;23;19998;-78
2022/12/08 00:56:30;;;;;;;4.78;1.98;;;;;;;;;;1276238;23;19997;-78
2022/12/08 00:57:01;;;;;;;2.28;1.92;;;;;;;;;;1270172;23;20001;-77
2022/12/08 00:57:32;;;;;;;3.58;1.73;;;;;;;;;;1263639;23;20009;-78
2022/12/08 00:58:03;;;;;;;2.30;1.70;;;;;;;;;;1264424;23;20017;-79
2022/12/08 00:58:34;;;;;;;3.50;2.03;;;;;;;;;;1264450;23;20005;-79
2022/12/08 00:59:06;;;;;;;3.40;2.05;;;;;;;;;;1264003;23;20030;-77
2022/12/08 00:59:37;;;;;;;2.53;1.63;;;;;;;;;;1264521;23;20002;-77
2022/12/08 01:00:08;;;;;;;3.03;1.95;;;;;;;;;;1270248;23;19997;-77
2022/12/08 01:00:43;;;;;;;3.35;2.20;;;;;;;;;;1270382;23;20017;-78
2022/12/08 01:01:14;;;;;;;3.97;2.00;;;;;;;;;;1276402;23;20336;-79
2022/12/08 01:01:45;;;;;;;2.95;2.15;;;;;;;;;;1276154;23;19997;-78
2022/12/08 01:02:16;;;;;;;2.30;1.90;;;;;;;;;;1269734;23;20013;-78
2022/12/08 01:02:47;;;;;;;3.17;2.10;;;;;;;;;;1263467;23;20037;-78
2022/12/08 01:03:18;;;;;;;3.03;2.30;;;;;;;;;;1264040;23;20497;-78
2022/12/08 01:03:49;;;;;;;3.25;2.35;;;;;;;;;;1263786;23;20034;-78
2022/12/08 01:04:20;;;;;;;5.38;2.50;;;;;;;;;;1269993;23;20672;-77
2022/12/08 01:04:51;;;;;;;2.30;2.10;;;;;;;;;;1263265;23;20017;-78
2022/12/08 01:05:22;;;;;;;2.13;1.90;;;;;;;;;;1264443;23;19998;-77
2022/12/08 01:05:53;;;;;;;4.40;2.80;;;;;;;;;;1269571;23;20002;-79
2022/12/08 01:06:24;;;;;;;2.13;1.75;;;;;;;;;;1269971;23;20006;-79
2022/12/08 01:06:55;;;;;;;3.08;2.05;;;;;;;;;;1269614;23;20008;-78
2022/12/08 01:07:26;;;;;;;3.83;2.40;;;;;;;;;;1269894;23;20137;-78
2022/12/08 01:07:57;;;;;;;3.28;2.58;;;;;;;;;;1269227;23;20014;-79
2022/12/08 01:08:28;;;;;;;4.85;2.30;;;;;;;;;;1264288;23;20008;-78
2022/12/08 01:08:59;;;;;;;4.38;2.63;;;;;;;;;;1269548;23;20077;-79
2022/12/08 01:09:30;;;;;;;3.35;2.30;;;;;;;;;;1264010;23;20093;-78
2022/12/08 01:10:04;;;;;;;3.75;2.88;;;;;;;;;;1269572;23;20064;-79
2022/12/08 01:10:35;;;;;;;2.75;2.13;;;;;;;;;;1269888;23;20424;-78
2022/12/08 01:11:07;;;;;;;2.80;2.10;;;;;;;;;;1269767;23;20037;-78
2022/12/08 01:11:38;;;;;;;3.60;2.35;;;;;;;;;;1270219;23;20073;-78
2022/12/08 01:12:09;;;;;;;4.47;2.53;;;;;;;;;;1269980;23;20272;-79
2022/12/08 01:12:40;;;;;;;3.00;2.70;;;;;;;;;;1269816;23;20083;-79
2022/12/08 01:13:11;;;;;;;3.40;2.50;;;;;;;;;;1269683;23;20072;-78
2022/12/08 01:13:42;;;;;;;2.65;2.10;;;;;;;;;;1263821;23;20438;-79
2022/12/08 01:14:14;;;;;;;3.55;2.30;;;;;;;;;;1263827;23;20608;-78
2022/12/08 01:14:45;;;;;;;2.58;2.22;;;;;;;;;;1269982;23;20002;-78
2022/12/08 01:15:16;;;;;;;3.92;2.72;;;;;;;;;;1269860;23;20001;-79
2022/12/08 01:15:47;;;;;;;4.35;2.83;;;;;;;;;;1264423;23;20010;-79
2022/12/08 01:16:18;;;;;;;4.97;3.00;;;;;;;;;;1270342;23;20076;-79
2022/12/08 01:16:50;;;;;;;5.22;3.58;;;;;;;;;;1269958;23;20338;-78
2022/12/08 01:17:21;;;;;;;4.00;3.10;;;;;;;;;;1270952;23;20363;-79
2022/12/08 01:17:52;;;;;;;5.22;3.45;;;;;;;;;;1269956;23;20362;-78
2022/12/08 01:18:22;;;;;;;4.95;3.30;;;;;;;;;;1263922;23;20037;-79
2022/12/08 01:18:53;;;;;;;8.10;4.40;;;;;;;;;;1264288;23;20002;-79
2022/12/08 01:19:24;;;;;;;3.85;3.10;;;;;;;;;;1264599;23;20877;-79
2022/12/08 01:19:55;;;;;;;7.90;4.85;;;;;;;;;;1270338;23;20078;-78
2022/12/08 01:20:27;;;;;;;3.97;3.15;;;;;;;;;;1270284;23;20520;-78
2022/12/08 01:21:07;;;;;;;4.30;3.05;;;;;;;;;;1270003;23;20001;-78
2022/12/08 01:21:38;;;;;;;3.40;2.80;;;;;;;;;;1263969;23;20010;-78
2022/12/08 01:22:09;;;;;;;5.07;3.00;;;;;;;;;;1266521;23;20024;-78
2022/12/08 01:22:40;;;;;;;4.75;3.40;;;;;;;;;;1263967;23;20032;-79
2022/12/08 01:23:10;;;;;;;6.53;4.35;;;;;;;;;;1258397;23;20007;-78
2022/12/08 01:23:41;;;;;;;8.02;4.65;;;;;;;;;;1264080;23;20006;-78
2022/12/08 01:24:18;;;;;;;4.20;3.80;;;;;;;;;;1264802;23;20001;-78
2022/12/08 01:24:49;;;;;;;5.63;3.92;;;;;;;;;;1271459;23;20072;-78
2022/12/08 01:25:20;;;;;;;4.95;4.45;;;;;;;;;;1277016;23;20052;-79
2022/12/08 01:25:51;;;;;;;5.20;3.97;;;;;;;;;;1269783;23;20009;-78
2022/12/08 01:26:22;;;;;;;5.72;4.25;;;;;;;;;;1263996;23;20648;-78
2022/12/08 01:26:53;;;;;;;4.50;4.03;;;;;;;;;;1263755;23;20010;-79
2022/12/08 01:27:24;;;;;;;5.57;4.30;;;;;;;;;;1264475;23;20006;-78
2022/12/08 01:27:55;;;;;;;4.90;4.00;;;;;;;;;;1269792;23;20418;-78
2022/12/08 01:28:26;;;;;;;6.15;4.47;;;;;;;;;;1264268;23;20312;-78
2022/12/08 01:28:57;;;;;;;4.90;3.72;;;;;;;;;;1264138;23;20002;-77
2022/12/08 01:29:28;;;;;;;7.32;3.83;;;;;;;;;;1270376;23;20085;-78
2022/12/08 01:29:59;;;;;;;5.43;3.85;;;;;;;;;;1270047;23;20445;-78
2022/12/08 01:30:30;;;;;;;6.35;4.65;;;;;;;;;;1270112;23;20008;-78
2022/12/08 01:31:01;;;;;;;6.68;4.38;;;;;;;;;;1269638;23;20020;-78
2022/12/08 01:31:32;;;;;;;5.68;5.07;;;;;;;;;;1264728;23;20133;-77
2022/12/08 01:32:03;;;;;;;4.85;4.35;;;;;;;;;;1270151;23;20001;-78
2022/12/08 01:32:34;;;;;;;4.88;4.32;;;;;;;;;;1271002;23;20008;-78
2022/12/08 01:33:05;;;;;;;5.55;4.80;;;;;;;;;;1269633;23;20013;-78
2022/12/08 01:33:36;;;;;;;4.25;3.80;;;;;;;;;;1270440;23;20607;-78
2022/12/08 01:34:07;;;;;;;4.70;3.95;;;;;;;;;;1270244;23;20529;-78
2022/12/08 01:34:39;;;;;;;3.83;3.42;;;;;;;;;;1264694;23;20126;-77
2022/12/08 01:35:10;;;;;;;6.90;4.88;;;;;;;;;;1263933;23;20009;-77
2022/12/08 01:35:41;;;;;;;4.75;3.92;;;;;;;;;;1257892;23;20018;-78
2022/12/08 01:36:32;;;;;;;4.78;3.88;;;;;;;;;;1257763;23;20097;-77
2022/12/08 01:37:03;;;;;;;5.10;4.55;;;;;;;;;;1268406;23;20010;-78
2022/12/08 01:37:34;;;;;;;4.80;4.18;;;;;;;;;;1263962;23;20010;-78
2022/12/08 01:38:05;;;;;;;5.10;4.60;;;;;;;;;;1264125;23;20324;-79
2022/12/08 01:38:36;;;;;;;6.15;4.75;;;;;;;;;;1264300;23;20012;-78
2022/12/08 01:39:08;;;;;;;4.65;3.25;;;;;;;;;;1269996;23;20104;-78
2022/12/08 01:39:40;;;;;;;4.35;3.55;;;;;;;;;;1269982;23;20398;-78
2022/12/08 01:40:11;;;;;;;5.68;4.63;;;;;;;;;;1270252;23;20449;-78
2022/12/08 01:40:42;;;;;;;3.88;3.10;;;;;;;;;;1270287;23;20434;-78
2022/12/08 01:41:14;;;;;;;4.00;3.42;;;;;;;;;;1270353;23;20081;-78
2022/12/08 01:41:46;;;;;;;6.07;5.47;;;;;;;;;;1270879;23;20330;-78
2022/12/08 01:42:21;;;;;;;7.40;4.47;;;;;;;;;;1276888;23;20509;-77
2022/12/08 01:42:52;;;;;;;4.63;3.95;;;;;;;;;;1276378;23;20751;-77
2022/12/08 01:43:23;;;;;;;4.13;3.70;;;;;;;;;;1276849;23;19993;-78
2022/12/08 01:44:14;;;;;;;5.40;3.55;;;;;;;;;;1269907;23;20093;-79
2022/12/08 01:44:45;;;;;;;5.13;4.30;;;;;;;;;;1268221;23;20338;-79
2022/12/08 01:45:24;;;;;;;5.38;4.25;;;;;;;;;;1264133;23;20418;-77
2022/12/08 01:45:55;;;;;;;5.50;3.88;;;;;;;;;;1269632;23;20028;-78
2022/12/08 01:46:27;;;;;;;4.97;3.88;;;;;;;;;;1264123;23;20068;-78
2022/12/08 01:46:57;;;;;;;4.13;3.67;;;;;;;;;;1263773;23;19999;-78
2022/12/08 01:47:32;;;;;;;6.20;4.20;;;;;;;;;;1264554;23;20005;-77
2022/12/08 01:48:05;;;;;;;5.85;4.32;;;;;;;;;;1269892;23;20117;-79
2022/12/08 01:48:36;;;;;;;6.47;4.13;;;;;;;;;;1269962;23;19997;-79
2022/12/08 01:49:18;;;;;;;4.70;3.85;;;;;;;;;;1268224;23;20028;-78
2022/12/08 01:49:49;;;;;;;5.28;3.85;;;;;;;;;;1269909;23;20002;-78
2022/12/08 01:50:21;;;;;;;4.55;3.20;;;;;;;;;;1269933;23;20073;-78
2022/12/08 01:50:53;;;;;;;4.35;3.72;;;;;;;;;;1270013;23;20394;-78
2022/12/08 01:51:25;;;;;;;5.75;4.00;;;;;;;;;;1269022;23;19997;-77
2022/12/08 01:52:02;;;;;;;5.97;3.80;;;;;;;;;;1270030;23;20061;-78
2022/12/08 01:52:39;;;;;;;4.78;3.72;;;;;;;;;;1269864;23;20005;-78
2022/12/08 01:53:18;;;;;;;3.50;3.10;;;;;;;;;;1266853;23;20001;-78
2022/12/08 01:53:49;;;;;;;4.03;3.20;;;;;;;;;;1263947;23;20271;-78
2022/12/08 01:54:22;;;;;;;5.88;3.80;;;;;;;;;;1266952;23;20555;-78
2022/12/08 01:54:55;;;;;;;6.32;4.40;;;;;;;;;;1270206;23;19997;-78
2022/12/08 01:55:31;;;;;;;3.97;3.58;;;;;;;;;;1269724;23;20002;-77
2022/12/08 01:56:04;;;;;;;3.50;2.95;;;;;;;;;;1270239;23;19990;-77
2022/12/08 01:56:40;;;;;;;4.88;3.20;;;;;;;;;;1269582;23;20331;-78
2022/12/08 01:57:16;;;;;;;4.90;3.45;;;;;;;;;;1270130;23;20044;-77
2022/12/08 01:57:49;;;;;;;5.03;3.97;;;;;;;;;;1269968;23;20468;-77
2022/12/08 01:58:22;;;;;;;4.63;2.92;;;;;;;;;;1267412;23;20079;-78
2022/12/08 01:58:53;;;;;;;4.35;2.65;;;;;;;;;;1267728;23;20001;-78
2022/12/08 01:59:25;;;;;;;5.40;3.92;;;;;;;;;;1264061;23;20081;-77
2022/12/08 01:59:59;;;;;;;6.15;3.30;;;;;;;;;;1270033;23;20014;-77
2022/12/08 02:00:30;;;;;;;3.83;3.42;;;;;;;;;;1269759;23;20607;-77
2022/12/08 02:01:01;;;;;;;3.60;2.70;;;;;;;;;;1264183;23;20430;-78
2022/12/08 02:01:33;;;;;;;3.38;3.08;;;;;;;;;;1265017;23;20002;-77
2022/12/08 02:02:04;;;;;;;3.03;2.65;;;;;;;;;;1270194;23;20100;-78
2022/12/08 02:02:48;;;;;;;4.00;2.97;;;;;;;;;;1269840;23;20056;-78
2022/12/08 02:03:26;;;;;;;4.82;3.67;;;;;;;;;;1270308;23;20006;-77
2022/12/08 02:03:58;;;;;;;5.53;3.25;;;;;;;;;;1269929;23;20097;-77
2022/12/08 02:04:29;;;;;;;3.03;2.72;;;;;;;;;;1270145;23;20157;-77
2022/12/08 02:05:01;;;;;;;5.25;2.70;;;;;;;;;;1269693;23;20086;-76
2022/12/08 02:05:36;;;;;;;3.30;2.90;;;;;;;;;;1270142;23;20005;-77
2022/12/08 02:06:08;;;;;;;4.32;2.97;;;;;;;;;;1268235;23;20001;-77
2022/12/08 02:06:41;;;;;;;2.75;2.45;;;;;;;;;;1265709;23;19998;-77
2022/12/08 02:07:14;;;;;;;3.42;2.85;;;;;;;;;;1269810;23;20005;-77
2022/12/08 02:07:45;;;;;;;4.88;3.13;;;;;;;;;;1270296;23;20555;-78
2022/12/08 02:08:17;;;;;;;3.35;3.05;;;;;;;;;;1270012;23;20397;-78
2022/12/08 02:08:48;;;;;;;3.38;2.40;;;;;;;;;;1271349;23;20068;-77
2022/12/08 02:09:19;;;;;;;3.90;3.38;;;;;;;;;;1269887;23;20109;-77
2022/12/08 02:09:51;;;;;;;3.45;2.30;;;;;;;;;;1270266;23;20008;-79
2022/12/08 02:10:23;;;;;;;2.92;2.50;;;;;;;;;;1263865;23;20401;-76
2022/12/08 02:10:54;;;;;;;5.10;3.72;;;;;;;;;;1264411;23;20006;-78
2022/12/08 02:11:25;;;;;;;3.25;2.75;;;;;;;;;;1263949;23;20101;-76
2022/12/08 02:11:57;;;;;;;3.92;3.10;;;;;;;;;;1258163;23;20022;-79
2022/12/08 02:12:28;;;;;;;4.75;3.08;;;;;;;;;;1258087;23;19999;-77
2022/12/08 02:13:00;;;;;;;3.35;2.53;;;;;;;;;;1264891;23;20017;-77
2022/12/08 02:13:31;;;;;;;3.70;2.50;;;;;;;;;;1270810;23;20527;-77
2022/12/08 02:14:03;;;;;;;3.92;3.05;;;;;;;;;;1275915;23;20021;-77
2022/12/08 02:14:34;;;;;;;4.97;2.92;;;;;;;;;;1269810;23;20005;-77
2022/12/08 02:15:08;;;;;;;3.28;2.97;;;;;;;;;;1270239;23;20009;-77
2022/12/08 02:15:55;;;;;;;4.32;2.35;;;;;;;;;;1270129;23;19998;-77
2022/12/08 02:16:40;;;;;;;5.28;3.35;;;;;;;;;;1268058;23;20006;-77
2022/12/08 02:17:21;;;;;;;3.78;3.08;;;;;;;;;;1263271;23;20060;-77
2022/12/08 02:18:15;;;;;;;4.25;3.42;;;;;;;;;;1263444;23;20040;-77
2022/12/08 02:18:55;;;;;;;5.43;2.65;;;;;;;;;;1269196;23;20002;-77
2022/12/08 02:19:53;;;;;;;4.05;3.35;;;;;;;;;;1269705;23;20710;-77
2022/12/08 02:20:39;;;;;;;3.65;3.20;;;;;;;;;;1269998;23;20040;-77
2022/12/08 02:21:12;;;;;;;5.05;3.35;;;;;;;;;;1269653;23;20153;-78
2022/12/08 02:21:49;;;;;;;4.32;3.33;;;;;;;;;;1269322;23;20029;-77
2022/12/08 02:22:26;;;;;;;5.78;3.10;;;;;;;;;;1269604;23;20005;-78
2022/12/08 02:23:19;;;;;;;4.50;3.60;;;;;;;;;;1266827;23;20016;-77
2022/12/08 02:24:04;;;;;;;3.58;3.13;;;;;;;;;;1263521;23;20014;-79
2022/12/08 02:24:58;;;;;;;3.15;2.80;;;;;;;;;;1265525;23;20053;-77
2022/12/08 02:25:32;;;;;;;5.68;3.40;;;;;;;;;;1270093;23;20576;-79
2022/12/08 02:26:17;;;;;;;4.50;3.55;;;;;;;;;;1269935;23;20006;-79
2022/12/08 02:27:03;;;;;;;3.58;3.28;;;;;;;;;;1269808;23;20037;-80
2022/12/08 02:27:55;;;;;;;4.03;3.63;;;;;;;;;;1270001;23;20413;-76
2022/12/08 02:28:37;;;;;;;5.05;3.67;;;;;;;;;;1264321;23;20006;-77
2022/12/08 02:29:14;;;;;;;4.70;3.67;;;;;;;;;;1264338;23;20006;-78
2022/12/08 02:29:45;;;;;;;5.72;3.85;;;;;;;;;;1264353;23;20002;-77
2022/12/08 02:30:24;;;;;;;4.57;3.65;;;;;;;;;;1261325;23;20231;-77
2022/12/08 02:31:13;;;;;;;4.47;4.07;;;;;;;;;;1263568;23;20679;-78
2022/12/08 02:31:53;;;;;;;4.18;3.40;;;;;;;;;;1264234;23;20009;-77
2022/12/08 02:32:39;;;;;;;4.00;3.40;;;;;;;;;;1269832;23;20006;-78
2022/12/08 02:33:23;;;;;;;4.05;3.25;;;;;;;;;;1269631;23;20037;-77
2022/12/08 02:34:03;;;;;;;3.80;3.20;;;;;;;;;;1270292;23;20010;-77
2022/12/08 02:34:57;;;;;;;4.60;4.07;;;;;;;;;;1270065;23;20448;-77
2022/12/08 02:35:35;;;;;;;4.88;4.35;;;;;;;;;;1255206;23;20007;-77
2022/12/08 02:36:29;;;;;;;4.25;3.85;;;;;;;;;;1270236;23;20450;-77
2022/12/08 02:37:08;;;;;;;5.32;4.03;;;;;;;;;;1257744;23;20002;-77
2022/12/08 02:37:43;;;;;;;4.25;3.85;;;;;;;;;;1253397;23;20470;-78
2022/12/08 02:38:17;;;;;;;3.55;3.17;;;;;;;;;;1270260;23;20715;-77
2022/12/08 02:38:51;;;;;;;4.72;4.05;;;;;;;;;;1263947;23;20009;-77
2022/12/08 02:39:54;;;;;;;3.60;3.22;;;;;;;;;;1266099;23;20029;-78
2022/12/08 02:40:25;;;;;;;3.90;3.50;;;;;;;;;;1246623;23;20015;-78
2022/12/08 02:41:03;;;;;;;4.03;3.30;;;;;;;;;;1251671;23;20041;-77
2022/12/08 02:41:34;;;;;;;3.78;3.42;;;;;;;;;;1259589;23;20508;-78
2022/12/08 02:42:27;;;;;;;3.92;3.53;;;;;;;;;;1259892;23;20676;-77
2022/12/08 02:43:03;;;;;;;4.07;3.35;;;;;;;;;;1263930;23;20005;-76
2022/12/08 02:43:44;;;;;;;5.60;4.25;;;;;;;;;;1269415;23;20086;-77
2022/12/08 02:44:21;;;;;;;4.10;3.67;;;;;;;;;;1269521;23;20009;-78
2022/12/08 02:44:57;;;;;;;5.07;3.72;;;;;;;;;;1269544;23;20724;-78
2022/12/08 02:45:27;;;;;;;4.35;3.13;;;;;;;;;;1270401;23;20041;-77
2022/12/08 02:46:04;;;;;;;5.30;4.15;;;;;;;;;;1269924;23;20061;-78
2022/12/08 02:46:37;;;;;;;5.05;3.72;;;;;;;;;;1270374;23;20382;-77
2022/12/08 02:47:13;;;;;;;3.92;3.13;;;;;;;;;;1272126;23;20392;-78
2022/12/08 02:47:44;;;;;;;5.72;4.18;;;;;;;;;;1270004;23;20433;-78
2022/12/08 02:48:15;;;;;;;6.72;4.15;;;;;;;;;;1263871;23;20524;-78
2022/12/08 02:48:47;;;;;;;3.50;3.17;;;;;;;;;;1263664;23;20504;-78
2022/12/08 02:49:18;;;;;;;4.55;3.25;;;;;;;;;;1264640;23;20043;-77
2022/12/08 02:49:49;;;;;;;4.82;3.63;;;;;;;;;;1263840;23;20109;-78
2022/12/08 02:50:20;;;;;;;4.13;3.58;;;;;;;;;;1264151;23;20065;-77
2022/12/08 02:50:51;;;;;;;6.18;3.58;;;;;;;;;;1264567;23;20006;-77
2022/12/08 02:51:22;;;;;;;4.97;3.95;;;;;;;;;;1270627;23;20005;-78
2022/12/08 02:52:03;;;;;;;4.85;3.90;;;;;;;;;;1270010;23;20064;-78
2022/12/08 02:52:34;;;;;;;5.05;3.60;;;;;;;;;;1270196;23;20002;-77
2022/12/08 02:53:05;;;;;;;3.90;3.45;;;;;;;;;;1263656;23;20009;-78
2022/12/08 02:53:36;;;;;;;4.57;4.15;;;;;;;;;;1266844;23;20017;-77
2022/12/08 02:54:08;;;;;;;5.75;3.90;;;;;;;;;;1263869;23;20096;-77
2022/12/08 02:54:40;;;;;;;4.72;4.22;;;;;;;;;;1264173;23;20002;-77
2022/12/08 02:55:29;;;;;;;7.22;4.50;;;;;;;;;;1264301;23;20421;-78
2022/12/08 02:56:11;;;;;;;5.53;4.00;;;;;;;;;;1270109;23;20401;-77
2022/12/08 02:56:59;;;;;;;5.10;4.00;;;;;;;;;;1270324;23;20028;-77
2022/12/08 02:57:48;;;;;;;4.45;3.97;;;;;;;;;;1269754;23;20370;-77
2022/12/08 02:58:38;;;;;;;5.30;4.57;;;;;;;;;;1270190;23;20057;-77
2022/12/08 02:59:19;;;;;;;5.50;3.95;;;;;;;;;;1268622;23;20009;-77
2022/12/08 02:59:50;;;;;;;5.72;4.13;;;;;;;;;;1270026;23;20501;-77
2022/12/08 03:00:23;;;;;;;5.60;4.47;;;;;;;;;;1269817;23;20005;-78
2022/12/08 03:01:05;;;;;;;5.63;4.85;;;;;;;;;;1270186;23;20005;-78
2022/12/08 03:01:45;;;;;;;4.30;3.90;;;;;;;;;;1269790;23;20072;-77
2022/12/08 03:02:27;;;;;;;4.93;4.20;;;;;;;;;;1264032;23;20089;-77
2022/12/08 03:03:24;;;;;;;4.53;3.88;;;;;;;;;;1269891;23;20001;-77
2022/12/08 03:04:16;;;;;;;5.32;3.80;;;;;;;;;;1269824;23;20059;-75
2022/12/08 03:04:58;;;;;;;4.55;4.10;;;;;;;;;;1269719;23;20020;-77
2022/12/08 03:05:38;;;;;;;7.75;3.65;;;;;;;;;;1271048;23;19994;-77
2022/12/08 03:06:19;;;;;;;6.03;3.90;;;;;;;;;;1276923;23;19997;-76
2022/12/08 03:06:55;;;;;;;4.97;3.50;;;;;;;;;;1276147;23;20423;-78
2022/12/08 03:07:47;;;;;;;5.38;4.38;;;;;;;;;;1270238;23;20064;-77
2022/12/08 03:08:24;;;;;;;7.22;4.45;;;;;;;;;;1264131;23;20089;-77
2022/12/08 03:08:57;;;;;;;5.45;3.85;;;;;;;;;;1263905;23;20196;-77
2022/12/08 03:09:37;;;;;;;4.00;3.60;;;;;;;;;;1264065;23;20462;-78
2022/12/08 03:10:21;;;;;;;4.75;2.97;;;;;;;;;;1257578;23;19998;-78
2022/12/08 03:11:01;;;;;;;13.38;3.70;;;;;;;;;;1262974;23;20334;-77
2022/12/08 03:11:38;;;;;;;4.70;3.75;;;;;;;;;;1264311;23;19994;-78
2022/12/08 03:12:21;;;;;;;5.57;4.20;;;;;;;;;;1269431;23;20314;-78
2022/12/08 03:12:57;;;;;;;7.38;4.20;;;;;;;;;;1264083;23;19998;-77
2022/12/08 03:13:45;;;;;;;7.57;4.05;;;;;;;;;;1269981;23;20017;-78
2022/12/08 03:14:17;;;;;;;4.63;3.63;;;;;;;;;;1270051;23;20099;-79
2022/12/08 03:14:50;;;;;;;3.47;3.00;;;;;;;;;;1270226;23;20077;-78
2022/12/08 03:15:21;;;;;;;4.20;3.33;;;;;;;;;;1269869;23;20545;-77
2022/12/08 03:15:53;;;;;;;4.47;3.60;;;;;;;;;;1269894;23;20035;-78
2022/12/08 03:16:26;;;;;;;5.20;3.85;;;;;;;;;;1269875;23;20338;-77
2022/12/08 03:16:58;;;;;;;10.40;3.58;;;;;;;;;;1270152;23;20069;-78
2022/12/08 03:17:30;;;;;;;4.75;3.65;;;;;;;;;;1268598;23;20342;-77
2022/12/08 03:18:03;;;;;;;6.03;3.33;;;;;;;;;;1265491;23;20006;-78
2022/12/08 03:18:35;;;;;;;4.13;3.05;;;;;;;;;;1269793;23;20437;-78
2022/12/08 03:19:13;;;;;;;3.75;2.80;;;;;;;;;;1270224;23;20108;-77
2022/12/08 03:19:45;;;;;;;5.47;3.47;;;;;;;;;;1270104;23;20002;-78
2022/12/08 03:20:19;;;;;;;4.22;3.25;;;;;;;;;;1270003;23;20004;-77
2022/12/08 03:20:50;;;;;;;6.38;3.40;;;;;;;;;;1270133;23;20076;-77
2022/12/08 03:21:21;;;;;;;3.92;2.95;;;;;;;;;;1269921;23;20100;-78
2022/12/08 03:21:59;;;;;;;3.13;2.50;;;;;;;;;;1270162;23;20021;-78
2022/12/08 03:22:30;;;;;;;5.20;2.67;;;;;;;;;;1269658;23;20057;-77
2022/12/08 03:23:04;;;;;;;5.72;2.65;;;;;;;;;;1265576;23;20005;-79
2022/12/08 03:23:36;;;;;;;4.22;2.78;;;;;;;;;;1269769;23;20080;-77
2022/12/08 03:24:07;;;;;;;4.05;3.25;;;;;;;;;;1270174;23;20504;-79
2022/12/08 03:24:40;;;;;;;4.40;2.88;;;;;;;;;;1269945;23;20001;-78
2022/12/08 03:25:13;;;;;;;2.92;2.42;;;;;;;;;;1270199;23;20250;-78
2022/12/08 03:25:50;;;;;;;3.13;2.33;;;;;;;;;;1269822;23;20005;-78
2022/12/08 03:26:31;;;;;;;5.00;3.03;;;;;;;;;;1268045;23;20742;-79
2022/12/08 03:27:10;;;;;;;4.90;2.15;;;;;;;;;;1269746;23;20024;-78
2022/12/08 03:27:41;;;;;;;2.58;1.80;;;;;;;;;;1269820;23;20461;-78
2022/12/08 03:28:12;;;;;;;3.00;2.45;;;;;;;;;;1270062;23;20025;-77
2022/12/08 03:28:43;;;;;;;5.10;2.63;;;;;;;;;;1267956;23;19990;-77
2022/12/08 03:29:14;;;;;;;4.32;2.20;;;;;;;;;;1269839;23;19998;-78
2022/12/08 03:29:46;;;;;;;3.13;1.88;;;;;;;;;;1270288;23;19994;-79